Time;durP1;ratioP1;P1;durP2;ratioP2;P2;SDS_P1;SDS_P2;PMS_P1;PMS_P2;Temp;Humidity;BMP_temperature;BMP_pressure;BME280_temperature;BME280_humidity;BME280_pressure;Samples;Min_cycle;Max_cycle;Signal;HPM_P1;HPM_P2
2022/06/29 00:00:43;;;;;;;6.60;4.45;;;;;;;19.43;65.19;98876.44;5149001;28;20125;-94
2022/06/29 00:03:38;;;;;;;5.03;4.30;;;;;;;19.01;64.38;98816.59;5144255;28;20250;-92
2022/06/29 00:06:29;;;;;;;10.70;4.43;;;;;;;19.94;65.92;98964.72;5130884;28;20057;-94
2022/06/29 00:09:20;;;;;;;7.45;4.88;;;;;;;19.20;65.16;98842.69;5147133;28;20141;-94
2022/06/29 00:12:11;;;;;;;6.93;4.03;;;;;;;19.98;64.97;98957.88;5144742;28;20062;-93
2022/06/29 00:15:02;;;;;;;6.32;3.70;;;;;;;20.06;64.76;98963.06;5144370;28;20057;-93
2022/06/29 00:17:52;;;;;;;6.38;4.88;;;;;;;18.94;65.10;98815.72;5131145;28;20062;-93
2022/06/29 00:20:43;;;;;;;5.50;4.07;;;;;;;19.01;65.36;98806.69;5144670;28;20073;-92
2022/06/29 00:23:34;;;;;;;5.57;4.65;;;;;;;19.25;65.99;98858.22;5157795;28;20057;-93
2022/06/29 00:26:27;;;;;;;12.32;5.72;;;;;;;19.53;65.79;98917.19;5157833;28;20082;-92
2022/06/29 00:29:19;;;;;;;9.43;5.55;;;;;;;19.35;65.73;98882.84;5144409;28;20062;-92
2022/06/29 00:32:10;;;;;;;9.00;5.20;;;;;;;19.30;65.72;98865.66;5144080;28;20061;-92
2022/06/29 00:35:01;;;;;;;15.23;5.90;;;;;;;19.07;64.95;98788.06;5143155;28;20070;-92
2022/06/29 00:37:52;;;;;;;10.60;4.57;;;;;;;19.31;65.62;98868.16;5157608;28;20061;-92
2022/06/29 00:40:45;;;;;;;9.45;4.95;;;;;;;18.99;65.53;98832.91;5130197;28;20066;-92
2022/06/29 00:43:42;;;;;;;6.97;5.40;;;;;;;18.78;65.52;98785.53;5143519;28;20181;-93
2022/06/29 00:46:34;;;;;;;7.40;5.80;;;;;;;19.12;65.97;98831.28;5143647;28;20133;-93
2022/06/29 00:49:30;;;;;;;7.65;5.10;;;;;;;19.02;66.08;98826.31;5130699;28;20197;-94
2022/06/29 00:52:25;;;;;;;8.32;6.28;;;;;;;18.98;65.82;98800.88;5143804;28;20230;-92
2022/06/29 00:55:21;;;;;;;7.07;5.63;;;;;;;19.25;66.23;98859.03;5144030;28;20077;-93
2022/06/29 00:58:15;;;;;;;12.80;5.50;;;;;;;19.09;66.53;98845.97;5143797;28;20129;-92
2022/06/29 01:01:06;;;;;;;5.85;5.10;;;;;;;18.50;66.09;98763.28;5157307;28;20062;-92
2022/06/29 01:04:01;;;;;;;7.95;5.22;;;;;;;19.39;66.24;98915.53;5144169;28;20066;-92
2022/06/29 01:06:53;;;;;;;7.20;4.85;;;;;;;19.17;66.94;98896.84;5145999;28;20050;-93
2022/06/29 01:09:44;;;;;;;5.13;4.47;;;;;;;18.41;66.53;98768.00;5165969;28;20098;-92
2022/06/29 01:12:35;;;;;;;9.43;5.15;;;;;;;18.58;66.70;98765.81;5168348;28;20062;-92
2022/06/29 01:15:26;;;;;;;9.15;5.38;;;;;;;19.07;66.70;98848.00;5178506;28;20073;-93
2022/06/29 01:18:17;;;;;;;7.75;5.03;;;;;;;19.16;66.76;98873.69;5137712;28;20062;-93
2022/06/29 01:21:11;;;;;;;8.95;4.97;;;;;;;18.50;66.63;98768.66;5144617;28;20064;-93
2022/06/29 01:24:02;;;;;;;13.40;5.80;;;;;;;18.70;67.22;98798.25;5133811;28;20061;-93
2022/06/29 01:26:53;;;;;;;10.93;6.28;;;;;;;18.98;66.79;98850.06;5167724;28;20074;-91
2022/06/29 01:29:44;;;;;;;9.57;5.35;;;;;;;18.92;67.27;98839.28;5151610;28;20161;-94
2022/06/29 01:32:38;;;;;;;7.15;5.05;;;;;;;18.79;67.69;98858.88;5158599;28;20110;-93
2022/06/29 01:35:29;;;;;;;5.72;5.10;;;;;;;18.62;67.50;98847.59;5143574;28;20189;-94
2022/06/29 01:38:20;;;;;;;7.28;5.10;;;;;;;18.94;67.33;98872.16;5145069;28;20137;-92
2022/06/29 01:41:12;;;;;;;10.48;5.75;;;;;;;18.26;68.90;98794.97;5132230;28;20062;-93
2022/06/29 01:44:09;;;;;;;9.23;5.57;;;;;;;19.16;67.66;98915.84;5149491;28;20062;-92
2022/06/29 01:47:03;;;;;;;8.63;5.45;;;;;;;18.66;67.80;98859.59;5160796;28;20089;-93
2022/06/29 01:49:55;;;;;;;;;;;;;;;19.12;67.79;98920.81;5148177;28;20164;-91
2022/06/29 01:52:47;;;;;;;12.43;6.25;;;;;;;18.37;67.98;98790.06;5146955;28;19926;-93
2022/06/29 01:55:38;;;;;;;13.45;6.20;;;;;;;18.73;68.04;98873.91;5147366;28;20505;-92
2022/06/29 01:58:28;;;;;;;10.35;5.90;;;;;;;18.47;67.96;98830.78;5147132;28;20106;-93
2022/06/29 02:01:19;;;;;;;10.13;6.18;;;;;;;18.44;67.99;98815.06;5160523;28;20432;-92
2022/06/29 02:04:10;;;;;;;10.48;6.60;;;;;;;18.40;69.85;98837.97;5133482;28;20130;-92
2022/06/29 02:07:00;;;;;;;7.70;6.35;;;;;;;18.17;68.73;98780.03;5160374;28;20550;-93
2022/06/29 02:09:50;;;;;;;9.52;6.47;;;;;;;18.53;69.20;98848.78;5133076;28;20074;-92
2022/06/29 02:12:41;;;;;;;9.77;6.95;;;;;;;18.48;69.27;98853.94;5133258;28;20060;-92
2022/06/29 02:15:31;;;;;;;9.93;6.25;;;;;;;18.99;67.95;98916.19;5146720;28;20620;-93
2022/06/29 02:18:22;;;;;;;8.50;6.30;;;;;;;18.61;68.46;98843.28;5133005;28;20097;-93
2022/06/29 02:21:13;;;;;;;14.43;6.18;;;;;;;18.74;68.11;98858.63;5146281;28;20069;-94
2022/06/29 02:24:04;;;;;;;9.80;5.70;;;;;;;18.53;67.58;98832.69;5132555;28;20061;-93
2022/06/29 02:26:54;;;;;;;13.27;6.22;;;;;;;18.55;67.00;98830.63;5146597;28;20050;-93
2022/06/29 02:29:46;;;;;;;7.50;5.25;;;;;;;17.92;68.27;98734.09;5146392;28;20050;-91
2022/06/29 02:35:46;;;;;;;8.10;5.63;;;;;;;18.23;68.31;98748.91;5159936;28;20149;-91
2022/06/29 02:38:39;;;;;;;10.82;5.88;;;;;;;18.83;68.53;98835.94;5132768;28;20062;-92
2022/06/29 02:41:30;;;;;;;11.52;6.57;;;;;;;18.99;68.85;98873.22;5146168;28;20062;-94
2022/06/29 02:44:20;;;;;;;6.32;5.47;;;;;;;18.22;69.47;98736.53;5159624;28;20050;-92
2022/06/29 02:47:11;;;;;;;11.93;5.90;;;;;;;18.45;68.70;98785.38;5146068;28;20054;-94
2022/06/29 02:50:02;;;;;;;10.70;6.20;;;;;;;18.90;68.73;98878.94;5146204;28;20134;-92
2022/06/29 02:52:53;;;;;;;23.15;6.82;;;;;;;18.63;68.59;98814.34;5145901;28;20047;-92
2022/06/29 02:55:44;;;;;;;9.10;5.88;;;;;;;17.92;68.23;98696.53;5145776;28;20057;-93
2022/06/29 02:58:35;;;;;;;9.57;6.38;;;;;;;18.08;68.26;98730.28;5144635;28;20061;-91
2022/06/29 03:01:26;;;;;;;11.57;5.97;;;;;;;18.46;68.08;98791.56;5145551;28;20524;-92
2022/06/29 03:04:16;;;;;;;10.77;5.93;;;;;;;18.50;68.70;98799.00;5145709;28;20074;-93
2022/06/29 03:07:07;;;;;;;17.35;5.93;;;;;;;18.31;68.66;98783.66;5147623;28;20077;-92
2022/06/29 03:09:57;;;;;;;9.23;6.70;;;;;;;18.34;68.87;98806.56;5159775;28;20058;-91
2022/06/29 03:12:48;;;;;;;11.70;6.97;;;;;;;17.83;68.53;98744.16;5159351;28;20064;-92
2022/06/29 03:15:38;;;;;;;14.48;6.70;;;;;;;18.76;68.69;98875.38;5145698;28;20059;-92
2022/06/29 03:18:30;;;;;;;19.45;7.35;;;;;;;18.70;68.65;98887.72;5145288;28;20622;-92
2022/06/29 03:21:21;;;;;;;13.30;6.82;;;;;;;18.45;69.13;98827.50;5145708;28;20145;-94
2022/06/29 03:24:11;;;;;;;9.18;7.05;;;;;;;18.92;68.74;98888.47;5145402;28;20054;-91
2022/06/29 03:27:05;;;;;;;12.57;6.80;;;;;;;18.20;69.05;98805.66;5151605;28;20130;-92
2022/06/29 03:29:56;;;;;;;14.35;6.30;;;;;;;18.15;68.94;98814.31;5156338;28;20039;-91
2022/06/29 03:32:47;;;;;;;12.90;6.20;;;;;;;18.02;68.74;98771.31;5183830;28;20113;-91
2022/06/29 03:35:37;;;;;;;22.10;6.40;;;;;;;17.93;68.87;98756.38;5183842;28;20035;-95
2022/06/29 03:38:28;;;;;;;14.38;5.63;;;;;;;17.76;68.68;98737.91;5165550;28;20047;-95
2022/06/29 03:41:19;;;;;;;12.80;6.32;;;;;;;17.81;69.14;98762.31;5132257;28;20053;-92
2022/06/29 03:44:09;;;;;;;12.45;6.43;;;;;;;18.19;68.85;98809.38;5131547;28;20062;-94
2022/06/29 03:47:00;;;;;;;16.52;7.03;;;;;;;18.11;69.20;98786.19;5145073;28;20113;-94
2022/06/29 03:49:51;;;;;;;17.90;7.53;;;;;;;18.15;68.71;98784.78;5145202;28;20373;-95
2022/06/29 03:52:42;;;;;;;31.92;7.85;;;;;;;18.42;68.78;98834.09;5145116;28;20062;-95
2022/06/29 03:55:32;;;;;;;17.23;7.38;;;;;;;18.33;68.89;98807.59;5131351;28;20085;-94
2022/06/29 03:58:27;;;;;;;10.38;6.40;;;;;;;17.79;69.32;98756.28;5144963;28;20062;-93
2022/06/29 04:01:18;;;;;;;22.38;7.65;;;;;;;18.02;68.70;98779.34;5145464;28;20105;-93
2022/06/29 04:04:08;;;;;;;21.48;7.90;;;;;;;17.94;69.08;98772.25;5150374;28;20053;-93
2022/06/29 04:06:59;;;;;;;24.55;7.50;;;;;;;18.10;68.90;98803.31;5168752;28;20134;-94
2022/06/29 04:09:49;;;;;;;28.58;8.85;;;;;;;18.80;69.49;98875.81;5164270;28;20062;-93
2022/06/29 04:12:41;;;;;;;19.40;9.57;;;;;;;17.94;69.54;98758.03;5145357;28;20057;-93
2022/06/29 04:15:31;;;;;;;28.58;10.43;;;;;;;17.84;70.32;98734.25;5144638;28;20055;-95
2022/06/29 04:18:21;;;;;;;20.98;10.30;;;;;;;18.27;69.90;98788.56;5130567;28;20113;-94
2022/06/29 04:21:12;;;;;;;25.38;9.82;;;;;;;18.39;69.82;98798.75;5144363;28;20102;-92
2022/06/29 04:24:03;;;;;;;20.88;10.98;;;;;;;17.95;70.22;98746.28;5131031;28;20099;-93
2022/06/29 04:26:53;;;;;;;18.40;9.52;;;;;;;18.54;69.58;98839.69;5130869;28;20054;-92
2022/06/29 04:29:44;;;;;;;10.80;9.05;;;;;;;18.55;70.00;98838.69;5145252;28;20053;-92
2022/06/29 04:32:34;;;;;;;14.65;10.00;;;;;;;18.65;69.78;98825.72;5150914;28;20574;-95
2022/06/29 04:35:25;;;;;;;24.15;10.48;;;;;;;18.63;69.80;98841.19;5171161;28;20065;-92
2022/06/29 04:38:16;;;;;;;18.63;10.23;;;;;;;18.84;70.16;98872.53;5151003;28;20069;-95
2022/06/29 04:41:07;;;;;;;17.27;11.32;;;;;;;18.28;70.36;98782.19;5150506;28;20492;-94
2022/06/29 04:43:58;;;;;;;19.17;14.07;;;;;;;18.00;70.68;98739.28;5164090;28;20054;-92
2022/06/29 04:46:48;;;;;;;17.73;14.30;;;;;;;18.58;70.21;98791.81;5164007;28;20053;-94
2022/06/29 04:49:39;;;;;;;25.42;14.98;;;;;;;18.26;69.78;98732.41;5150365;28;20149;-93
2022/06/29 04:52:29;;;;;;;19.92;13.88;;;;;;;18.83;69.26;98813.63;5150825;28;20185;-93
2022/06/29 04:55:20;;;;;;;23.80;15.98;;;;;;;18.75;69.64;98793.97;5150085;28;20445;-93
2022/06/29 04:58:11;;;;;;;21.58;15.95;;;;;;;19.41;70.06;98883.91;5152874;28;20050;-94
2022/06/29 05:01:02;;;;;;;21.15;15.68;;;;;;;19.29;69.93;98855.94;5150984;28;20277;-94
2022/06/29 05:09:21;;;;;;;21.10;13.00;;;;;;;19.40;70.41;98860.72;5143829;28;20055;-78
2022/06/29 05:12:11;;;;;;;20.80;13.13;;;;;;;19.76;68.97;98862.25;5141562;28;20424;-79
2022/06/29 05:15:01;;;;;;;16.60;12.45;;;;;;;19.85;68.56;98861.84;5147922;28;20077;-79
2022/06/29 05:17:52;;;;;;;17.02;13.20;;;;;;;20.12;68.32;98872.59;5157862;28;20051;-79
2022/06/29 05:20:43;;;;;;;16.52;11.98;;;;;;;20.00;68.25;98871.53;5148259;28;20338;-79
2022/06/29 05:23:33;;;;;;;14.55;12.55;;;;;;;20.10;68.06;98880.88;5150070;28;20061;-81
2022/06/29 05:26:24;;;;;;;21.30;12.82;;;;;;;19.94;68.00;98859.78;5129208;28;20091;-79
2022/06/29 05:29:14;;;;;;;18.08;12.77;;;;;;;20.01;67.59;98860.59;5121980;28;20058;-80
2022/06/29 05:32:06;;;;;;;21.10;12.40;;;;;;;20.18;67.31;98866.38;5115423;28;20150;-80
2022/06/29 05:34:57;;;;;;;18.52;13.07;;;;;;;19.97;68.58;98872.81;5130227;28;20130;-79
2022/06/29 05:37:47;;;;;;;15.48;10.57;;;;;;;19.80;69.47;98877.78;5133638;28;20509;-79
2022/06/29 05:40:38;;;;;;;16.40;11.77;;;;;;;20.09;68.39;98878.38;5131821;28;20062;-80
2022/06/29 05:43:30;;;;;;;16.02;11.13;;;;;;;20.28;67.59;98882.94;5133503;28;20552;-79
2022/06/29 05:46:22;;;;;;;15.23;10.43;;;;;;;20.39;66.83;98876.06;5128978;28;20481;-80
2022/06/29 05:49:12;;;;;;;11.70;10.02;;;;;;;20.33;67.31;98875.06;5132806;28;20038;-79
2022/06/29 05:52:03;;;;;;;17.95;13.10;;;;;;;20.57;66.03;98870.91;5138956;28;20062;-79
2022/06/29 05:54:53;;;;;;;14.77;10.23;;;;;;;20.45;66.89;98871.72;5124936;28;20135;-79
2022/06/29 05:57:49;;;;;;;15.52;9.40;;;;;;;20.41;66.96;98868.63;5114508;28;20050;-80
2022/06/29 06:00:39;;;;;;;18.35;10.02;;;;;;;20.58;66.82;98883.31;5125257;28;20058;-79
2022/06/29 06:03:30;;;;;;;15.68;10.02;;;;;;;20.69;67.01;98881.00;5142698;28;20529;-80
2022/06/29 06:06:20;;;;;;;14.73;9.05;;;;;;;20.75;67.03;98883.69;5131524;28;20108;-80
2022/06/29 06:09:10;;;;;;;17.15;10.10;;;;;;;20.91;66.80;98876.16;5128867;28;20603;-80
2022/06/29 06:12:00;;;;;;;12.13;9.98;;;;;;;21.16;65.78;98884.34;5134535;28;20548;-79
2022/06/29 06:14:50;;;;;;;13.40;9.32;;;;;;;21.20;65.24;98864.84;5129775;28;20216;-78
2022/06/29 06:17:41;;;;;;;18.13;12.10;;;;;;;21.29;64.80;98865.41;5133720;28;20058;-79
2022/06/29 06:20:31;;;;;;;12.40;9.55;;;;;;;21.25;64.97;98866.88;5123091;28;20051;-80
2022/06/29 06:23:21;;;;;;;12.50;9.80;;;;;;;21.30;64.25;98867.91;5126438;28;20073;-80
2022/06/29 06:26:11;;;;;;;14.38;9.68;;;;;;;21.35;64.06;98861.88;5128712;28;20118;-80
2022/06/29 06:29:02;;;;;;;16.10;9.80;;;;;;;21.58;63.32;98874.81;5126002;28;20063;-80
2022/06/29 06:31:52;;;;;;;10.48;8.63;;;;;;;21.82;63.82;98894.78;5136320;28;20066;-80
2022/06/29 06:34:43;;;;;;;12.18;9.07;;;;;;;21.98;62.71;98888.81;5140182;28;20070;-78
2022/06/29 06:37:33;;;;;;;10.35;9.10;;;;;;;21.97;62.68;98889.88;5122314;28;20078;-80
2022/06/29 06:43:33;;;;;;;9.70;8.45;;;;;;;22.15;62.06;98872.94;5133118;28;20106;-79
2022/06/29 06:46:24;;;;;;;11.02;8.20;;;;;;;22.23;62.38;98858.31;5131064;28;20062;-79
2022/06/29 06:49:16;;;;;;;10.07;7.80;;;;;;;22.12;61.68;98867.09;5127079;28;20054;-79
2022/06/29 06:52:07;;;;;;;14.68;8.50;;;;;;;22.64;61.58;98886.59;5138253;28;20645;-79
2022/06/29 06:54:57;;;;;;;9.13;8.10;;;;;;;23.06;59.37;98886.75;5124850;28;20070;-79
2022/06/29 06:57:47;;;;;;;14.13;8.05;;;;;;;24.17;56.46;98876.38;5123848;28;20110;-80
2022/06/29 07:00:38;;;;;;;10.73;7.68;;;;;;;24.83;54.45;98857.03;5126951;28;20421;-81
2022/06/29 07:03:31;;;;;;;9.77;7.22;;;;;;;25.59;54.06;98881.28;5126647;28;20125;-80
2022/06/29 07:06:21;;;;;;;12.20;7.35;;;;;;;25.77;51.59;98851.22;5132485;28;20098;-80
2022/06/29 07:09:12;;;;;;;8.18;6.85;;;;;;;26.34;52.34;98868.44;5135361;28;20547;-80
2022/06/29 07:12:03;;;;;;;11.23;7.00;;;;;;;26.73;49.78;98868.47;5139732;28;20058;-79
2022/06/29 07:14:52;;;;;;;9.52;6.75;;;;;;;27.26;50.75;98883.28;5129307;28;20054;-80
2022/06/29 07:17:43;;;;;;;8.98;6.70;;;;;;;27.65;48.53;98870.34;5132134;28;20511;-80
2022/06/29 07:20:33;;;;;;;9.05;5.72;;;;;;;28.30;48.84;98871.16;5128215;28;20101;-79
2022/06/29 07:23:24;;;;;;;10.77;6.25;;;;;;;28.59;47.30;98870.81;5139674;28;20109;-80
2022/06/29 07:26:14;;;;;;;14.98;9.10;;;;;;;28.65;46.20;98869.75;5135172;28;20061;-80
2022/06/29 07:29:04;;;;;;;15.82;9.25;;;;;;;28.74;46.77;98882.63;5136786;28;20062;-79
2022/06/29 07:31:54;;;;;;;8.70;7.25;;;;;;;29.07;46.37;98866.13;5141318;28;20183;-78
2022/06/29 07:34:45;;;;;;;10.75;8.32;;;;;;;29.37;44.51;98877.16;5141824;28;20061;-79
2022/06/29 07:37:36;;;;;;;9.70;8.00;;;;;;;29.38;43.22;98834.28;5154889;28;20065;-80
2022/06/29 07:40:27;;;;;;;13.48;7.22;;;;;;;29.89;42.39;98832.41;5152044;28;20070;-82
2022/06/29 07:43:17;;;;;;;10.10;7.57;;;;;;;30.03;42.94;98872.88;5149672;28;20062;-80
2022/06/29 07:46:08;;;;;;;10.10;6.60;;;;;;;30.19;44.29;98834.31;5138073;28;20051;-80
2022/06/29 07:48:59;;;;;;;6.60;5.93;;;;;;;29.82;41.74;98826.41;5144684;28;20055;-79
2022/06/29 07:51:49;;;;;;;14.05;5.32;;;;;;;30.17;42.19;98882.19;5147217;28;20065;-79
2022/06/29 07:54:41;;;;;;;6.47;5.32;;;;;;;30.34;39.98;98836.22;5138436;28;20054;-81
2022/06/29 07:57:32;;;;;;;6.72;5.22;;;;;;;30.28;41.66;98812.72;5136264;28;20050;-82
2022/06/29 08:00:22;;;;;;;10.18;5.13;;;;;;;30.25;42.15;98809.72;5135874;28;20070;-82
2022/06/29 08:03:13;;;;;;;7.57;5.20;;;;;;;30.71;40.98;98870.59;5135110;28;20061;-79
2022/06/29 08:06:10;;;;;;;8.68;4.75;;;;;;;30.83;40.73;98846.50;5133219;28;20058;-77
2022/06/29 08:09:03;;;;;;;5.55;4.78;;;;;;;30.75;41.73;98885.34;5139955;28;20090;-79
2022/06/29 08:11:53;;;;;;;6.18;5.22;;;;;;;30.83;40.50;98824.59;5134658;28;20063;-80
2022/06/29 08:14:44;;;;;;;6.57;4.50;;;;;;;31.43;39.84;98840.19;5146415;28;20113;-77
2022/06/29 08:17:34;;;;;;;6.57;4.65;;;;;;;31.23;38.67;98817.28;5144143;28;20077;-78
2022/06/29 08:20:25;;;;;;;6.60;4.97;;;;;;;31.45;38.76;98827.00;5137115;28;20101;-77
2022/06/29 08:23:15;;;;;;;7.28;4.30;;;;;;;31.71;40.59;98866.00;5135165;28;20061;-79
2022/06/29 08:26:05;;;;;;;5.60;4.72;;;;;;;32.13;37.03;98793.28;5126375;28;20081;-79
2022/06/29 08:29:15;;;;;;;5.43;4.45;;;;;;;32.36;38.62;98844.63;5142120;28;20058;-79
2022/06/29 08:32:06;;;;;;;5.97;4.15;;;;;;;32.74;38.43;98845.56;5129600;28;20078;-80
2022/06/29 08:35:01;;;;;;;5.20;4.40;;;;;;;32.80;38.26;98856.50;5146946;28;20058;-78
2022/06/29 08:37:58;;;;;;;5.93;4.45;;;;;;;32.96;38.06;98850.56;5140544;28;20058;-78
2022/06/29 08:40:49;;;;;;;7.05;3.88;;;;;;;32.52;38.44;98798.66;5140796;28;20058;-79
2022/06/29 08:43:40;;;;;;;7.75;4.90;;;;;;;32.96;35.47;98842.31;5147173;28;20138;-78
2022/06/29 08:46:31;;;;;;;9.35;3.90;;;;;;;31.91;39.44;98821.19;5137164;28;20058;-79
2022/06/29 08:49:21;;;;;;;5.15;3.25;;;;;;;32.36;36.78;98824.59;5135827;28;20057;-81
2022/06/29 08:52:11;;;;;;;3.63;3.28;;;;;;;32.88;36.95;98839.38;5129019;28;20061;-78
2022/06/29 08:55:07;;;;;;;6.35;3.85;;;;;;;33.21;39.33;98848.56;5132712;28;20261;-79
2022/06/29 08:57:57;;;;;;;6.10;3.78;;;;;;;33.26;36.29;98840.25;5149378;28;20093;-77
2022/06/29 09:00:55;;;;;;;4.95;3.22;;;;;;;33.34;35.69;98847.00;5127339;28;20053;-79
2022/06/29 09:03:45;;;;;;;3.95;3.55;;;;;;;32.54;37.48;98829.34;5142087;28;20055;-81
2022/06/29 09:06:36;;;;;;;3.90;3.60;;;;;;;31.32;39.22;98801.03;5125417;28;20062;-77
2022/06/29 09:09:26;;;;;;;4.60;3.55;;;;;;;31.78;39.07;98845.38;5154946;28;20133;-78
2022/06/29 09:12:18;;;;;;;4.85;3.72;;;;;;;32.41;38.34;98808.06;5152421;28;20125;-78
2022/06/29 09:15:10;;;;;;;5.32;3.33;;;;;;;32.64;36.42;98801.78;5149380;28;20086;-78
2022/06/29 09:18:02;;;;;;;5.38;3.30;;;;;;;32.68;38.36;98827.56;5156529;28;20073;-78
2022/06/29 09:21:01;;;;;;;5.18;3.67;;;;;;;33.02;36.23;98834.84;5150186;28;20105;-81
2022/06/29 09:23:51;;;;;;;5.18;3.42;;;;;;;32.98;36.92;98828.28;5137669;28;20065;-81
2022/06/29 09:26:42;;;;;;;5.40;3.33;;;;;;;33.28;39.26;98815.22;5134576;28;20085;-82
2022/06/29 09:29:35;;;;;;;5.38;3.75;;;;;;;34.02;35.24;98819.03;5136098;28;20078;-78
2022/06/29 09:32:28;;;;;;;4.85;3.20;;;;;;;32.52;35.99;98820.59;5133976;28;21258;-82
2022/06/29 09:35:19;;;;;;;4.60;2.97;;;;;;;31.10;38.09;98826.13;5151460;28;20058;-77
2022/06/29 09:38:26;;;;;;;5.82;3.35;;;;;;;30.65;39.59;98817.78;5137843;28;20082;-77
2022/06/29 09:41:16;;;;;;;7.10;2.80;;;;;;;30.70;39.88;98830.66;5134275;28;20065;-78
2022/06/29 09:44:07;;;;;;;5.45;3.55;;;;;;;30.60;40.18;98826.03;5131054;28;20062;-78
2022/06/29 09:46:58;;;;;;;5.57;3.47;;;;;;;30.06;41.27;98826.66;5138719;28;20059;-77
2022/06/29 09:49:53;;;;;;;4.35;3.08;;;;;;;30.00;42.27;98838.72;5157561;28;20055;-79
2022/06/29 09:52:45;;;;;;;7.15;3.40;;;;;;;29.92;42.18;98836.53;5135391;28;20054;-80
2022/06/29 09:55:36;;;;;;;8.13;3.53;;;;;;;30.04;41.89;98833.53;5133463;28;20155;-81
2022/06/29 09:58:41;;;;;;;6.40;3.30;;;;;;;30.43;40.45;98839.19;5142333;28;20055;-81
2022/06/29 10:04:41;;;;;;;5.32;3.03;;;;;;;31.90;41.55;98827.78;5120855;28;20264;-81
2022/06/29 10:07:33;;;;;;;3.67;3.30;;;;;;;31.87;38.63;98825.59;5121479;28;20050;-82
2022/06/29 10:10:26;;;;;;;6.80;3.42;;;;;;;32.63;37.47;98824.03;5126514;28;20062;-82
2022/06/29 10:13:43;;;;;;;4.15;3.08;;;;;;;32.46;38.39;98828.06;5134726;28;20061;-81
2022/06/29 10:16:46;;;;;;;9.48;3.75;;;;;;;32.51;36.80;98824.44;5122156;28;20069;-82
2022/06/29 10:20:09;;;;;;;6.82;3.00;;;;;;;32.28;38.52;98832.38;5144458;28;20078;-82
2022/06/29 10:22:59;;;;;;;3.17;2.60;;;;;;;33.33;39.16;98810.47;5108613;28;20097;-82
2022/06/29 10:25:50;;;;;;;4.47;3.20;;;;;;;33.08;36.85;98813.59;5139766;28;20070;-81
2022/06/29 10:28:40;;;;;;;6.93;3.30;;;;;;;33.05;35.45;98812.28;5129975;28;20137;-81
2022/06/29 10:31:49;;;;;;;5.07;3.33;;;;;;;32.58;36.36;98819.41;5157233;23;20421;-71
2022/06/29 10:37:52;;;;;;;6.63;3.65;;;;;;;33.32;39.86;98811.59;5144432;28;20051;-72
2022/06/29 10:41:09;;;;;;;4.63;3.03;;;;;;;34.16;40.15;98815.50;5141843;28;20124;-72
2022/06/29 10:44:00;;;;;;;4.97;4.10;;;;;;;32.39;37.71;98816.59;5144760;28;20065;-72
2022/06/29 10:46:57;;;;;;;11.32;3.97;;;;;;;31.24;39.85;98802.47;5143142;28;20505;-72
2022/06/29 10:49:48;;;;;;;5.68;3.58;;;;;;;31.31;39.23;98811.19;5140637;28;20060;-71
2022/06/29 10:52:38;;;;;;;5.75;3.45;;;;;;;30.78;41.08;98816.41;5143112;28;20112;-72
2022/06/29 10:55:30;;;;;;;6.35;4.13;;;;;;;29.95;41.90;98814.91;5148838;28;20050;-72
2022/06/29 10:58:21;;;;;;;6.32;3.58;;;;;;;29.64;42.21;98800.47;5141762;28;20062;-72
2022/06/29 11:01:14;;;;;;;;;;;;;;;30.28;40.75;98809.97;5142944;28;20153;-71
2022/06/29 11:04:04;;;;;;;5.40;3.72;;;;;;;30.24;41.89;98806.16;5153355;28;19933;-71
2022/06/29 11:13:31;;;;;;;6.85;3.63;;;;;;;30.54;41.54;98808.00;5142462;28;20585;-68
2022/06/29 11:16:28;;;;;;;5.72;3.78;;;;;;;29.53;44.41;98803.41;5138161;28;20067;-66
2022/06/29 11:19:25;;;;;;;7.63;4.20;;;;;;;29.57;43.06;98809.97;5137547;28;20073;-71
2022/06/29 11:22:17;;;;;;;6.10;3.67;;;;;;;29.09;44.55;98766.50;5143033;28;20046;-71
2022/06/29 11:25:07;;;;;;;5.70;3.72;;;;;;;29.64;43.78;98802.38;5140844;28;20501;-72
2022/06/29 11:27:58;;;;;;;7.25;3.70;;;;;;;29.75;44.59;98797.72;5141196;28;20153;-69
2022/06/29 11:31:06;;;;;;;4.93;3.80;;;;;;;30.10;43.73;98789.50;5142075;28;20065;-70
2022/06/29 11:33:57;;;;;;;6.85;4.00;;;;;;;28.90;45.42;98788.00;5139322;28;20720;-76
2022/06/29 11:36:48;;;;;;;6.70;3.42;;;;;;;28.62;46.58;98799.38;5139039;28;20062;-77
2022/06/29 11:39:45;;;;;;;4.18;3.65;;;;;;;29.05;45.83;98787.25;5144682;28;20185;-78
2022/06/29 11:45:51;;;;;;;5.40;3.75;;;;;;;29.98;43.80;98786.22;5142757;28;20134;-78
2022/06/29 11:49:33;;;;;;;7.45;3.35;;;;;;;29.84;44.86;98779.69;5147633;28;20062;-76
2022/06/29 11:52:01;;;;;;;4.07;3.20;;;;;;;29.99;43.96;98781.56;5145808;28;21620;-73
2022/06/29 11:54:56;;;;;;;7.30;3.90;;;;;;;29.73;43.84;98779.69;5144197;28;20088;-70
2022/06/29 11:57:57;;;;;;;5.20;4.00;;;;;;;29.26;45.36;98775.25;5142513;28;20425;-73
2022/06/29 12:00:47;;;;;;;9.93;3.63;;;;;;;29.92;44.32;98779.94;5142047;28;20141;-70
2022/06/29 12:03:38;;;;;;;7.85;3.88;;;;;;;29.13;45.79;98770.34;5138120;28;20081;-72
2022/06/29 12:06:35;;;;;;;4.55;3.47;;;;;;;29.10;46.06;98773.59;5137728;28;20115;-70
2022/06/29 12:09:25;;;;;;;5.80;3.50;;;;;;;29.25;46.00;98754.53;5137131;28;20050;-69
2022/06/29 12:12:17;;;;;;;4.05;3.30;;;;;;;29.66;46.05;98770.13;5137185;28;20698;-72
2022/06/29 12:15:08;;;;;;;4.80;3.47;;;;;;;29.79;43.76;98750.44;5125970;28;20082;-71
2022/06/29 12:17:59;;;;;;;5.53;3.67;;;;;;;29.62;44.46;98756.19;5144877;28;20566;-71
2022/06/29 12:20:49;;;;;;;6.90;3.13;;;;;;;29.73;44.53;98759.72;5144845;28;20058;-70
2022/06/29 12:23:40;;;;;;;7.75;3.53;;;;;;;29.96;43.40;98767.34;5147282;28;20073;-71
2022/06/29 12:26:30;;;;;;;8.77;3.58;;;;;;;29.79;42.89;98752.34;5144297;28;20428;-69
2022/06/29 12:29:21;;;;;;;6.40;3.67;;;;;;;29.65;43.78;98733.78;5139973;28;20119;-71
2022/06/29 12:32:17;;;;;;;10.13;3.42;;;;;;;29.50;45.63;98752.88;5136612;28;20046;-70
2022/06/29 12:35:08;;;;;;;5.82;3.28;;;;;;;30.05;44.80;98743.00;5138466;28;20741;-70
2022/06/29 12:37:58;;;;;;;5.63;3.58;;;;;;;30.24;42.57;98758.88;5136966;28;20069;-71
2022/06/29 12:40:49;;;;;;;6.38;3.60;;;;;;;30.00;45.45;98750.41;5137174;28;20144;-69
2022/06/29 12:43:39;;;;;;;5.93;3.47;;;;;;;30.11;42.66;98744.63;5133462;28;20552;-71
2022/06/29 12:46:33;;;;;;;7.28;3.72;;;;;;;30.47;43.92;98749.22;5139331;28;20066;-70
2022/06/29 12:49:23;;;;;;;9.32;3.83;;;;;;;29.79;43.86;98731.31;5128811;28;20057;-71
2022/06/29 12:52:14;;;;;;;7.97;3.95;;;;;;;29.73;43.63;98743.34;5143026;28;20059;-71
2022/06/29 12:55:05;;;;;;;6.25;3.30;;;;;;;28.89;46.03;98741.88;5128443;28;20132;-69
2022/06/29 12:57:55;;;;;;;8.25;3.50;;;;;;;29.79;45.81;98744.97;5143474;28;20057;-68
2022/06/29 13:00:45;;;;;;;4.15;3.33;;;;;;;29.72;44.99;98744.44;5141349;28;21610;-71
2022/06/29 13:03:36;;;;;;;9.90;3.58;;;;;;;29.78;43.63;98745.25;5139987;28;20109;-70
2022/06/29 13:06:27;;;;;;;6.30;3.53;;;;;;;29.41;44.56;98743.63;5137642;28;20058;-69
2022/06/29 13:09:17;;;;;;;5.28;3.63;;;;;;;29.79;44.18;98730.50;5137566;28;20062;-71
2022/06/29 13:12:08;;;;;;;6.38;3.60;;;;;;;30.03;43.89;98738.91;5141269;28;20524;-69
2022/06/29 13:14:58;;;;;;;7.07;3.88;;;;;;;30.10;44.83;98748.47;5140372;28;20106;-69
2022/06/29 13:17:49;;;;;;;6.13;3.28;;;;;;;29.71;44.97;98729.16;5144989;28;20100;-69
2022/06/29 13:20:39;;;;;;;5.78;3.70;;;;;;;29.72;42.12;98745.25;5148341;28;20061;-69
2022/06/29 13:23:29;;;;;;;5.80;3.38;;;;;;;29.67;42.13;98736.25;5143507;28;20078;-69
2022/06/29 13:26:19;;;;;;;7.60;3.50;;;;;;;29.97;42.40;98729.91;5140952;28;20073;-70
2022/06/29 13:29:10;;;;;;;7.25;3.10;;;;;;;29.89;43.89;98744.94;5136789;28;20069;-69
2022/06/29 13:32:01;;;;;;;5.20;3.30;;;;;;;30.39;41.63;98743.19;5138127;28;20053;-69
2022/06/29 13:34:51;;;;;;;5.50;3.05;;;;;;;30.48;43.30;98746.19;5139994;28;20062;-69
2022/06/29 13:37:42;;;;;;;6.82;3.20;;;;;;;30.23;43.63;98747.06;5143282;28;20826;-72
2022/06/29 13:40:32;;;;;;;4.85;3.03;;;;;;;30.02;41.75;98734.53;5144713;28;20054;-70
2022/06/29 13:43:23;;;;;;;6.07;3.10;;;;;;;29.96;41.19;98748.22;5145034;28;20055;-71
2022/06/29 13:46:13;;;;;;;4.88;2.97;;;;;;;29.96;41.43;98739.19;5146318;28;20064;-68
2022/06/29 13:49:03;;;;;;;6.00;2.80;;;;;;;30.23;42.06;98735.31;5153001;28;20117;-70
2022/06/29 13:51:54;;;;;;;4.80;2.97;;;;;;;30.65;40.33;98734.88;5152033;28;20049;-70